Guatemala City, Guatemala

8:14 AM CST on June 28, 2017 (GMT -0600)
La Aurora International | | Change Station

Elev 4885 ft 14.58 °N, 90.52 °W | Updated 14 minutes ago

Scattered Clouds
Scattered Clouds
68 °F
Feels Like 68 °F
N
7
Wind Variable Wind from North

Today
High -- | Low -- °F
--% Chance of Precip.
Yesterday
High -- | Low -- °F
Precip. -- in
Pressure 30.27 in
Visibility 6.2 miles
Clouds Mostly Cloudy 1500 ft
Scattered Clouds 20000 ft
Dew Point 59 °F
Humidity 73%
Rainfall 0.00 in
Snow Depth Not available.
5:35 AM 6:34 PM
Waxing Crescent, 26% visible
METAR MGGT 281400Z 36006KT 9999 BKN015 SCT200 20/15 Q1025 A3027
Pressure 30.27 in
Visibility 6.2 miles
Clouds Mostly Cloudy 1500 ft
Scattered Clouds 20000 ft
Dew Point 59 °F
Humidity 73%
Rainfall 0.00 in
Snow Depth Not available.
5:35 AM 6:34 PM
Waxing Crescent, 26% visible
METAR MGGT 281400Z 36006KT 9999 BKN015 SCT200 20/15 Q1025 A3027

Get Severe Weather Alerts

Thanks for signing up!

Be on the lookout for a verification email in your inbox.

You'll start receiving the daily forecast at 6 AM.

×

10-Day Weather Forecast

No radar image for this location.
×

Almanac

Astronomy

Jun. 28, 2017 Rise Set
Actual Time
Civil Twilight
Nautical Twilight
Astronomical Twilight
Moon
Length of Visible Light
Length of Day
Tomorrow will be .
, % of the Moon is Illuminated

Today's Extremes

Country Highs Country Lows

Community

WunderPhotos

Category 6

Welcome to Category 6. This is the collective home for Weather Underground's featured writeups by Dr. Jeff Masters (right), Bob Henson (left), Chris Burt, and other regular contributors.

Nearby

Air Quality

  Air Quality AQ Index Pollutant
Not available.

Snow Depth

Station Depth Elevation

Earthquake Activity

City Distance Mag. Time & Date
Minimum magnitude displayed is 2.5.

Coastal Water Temperatures

Place Temperature

Stations

Nearby Weather Stations

Station Location Temp. Windchill Dew Point Humidity Wind Precip. Elev Updated Type